Meteo Giornale » Osservazioni meteo Stati Uniti (USA) » Winner
ore: 09:53 - Osservazioni Meteo Winner
Lat. 43° 23' N Lon. 99° 51' W Alt. 621 metri s.l.m.
18 °C
Pioggia
Temp. 24 Ore
14 °C
31 °C
Nord
9.3 Km/h
Dew point 16 °C
Umidità 88 %
Visibilità 10 Km
Il sole sorge alle ore 07:03
Il sole tramonta alle ore 20:14
| Data e Ora | Cielo e Fenomeni | T °C | DP °C | Um. % | Pres. hPa | Vis. km | Vento km/h | |
|---|---|---|---|---|---|---|---|---|
| Oggi h: 09:53 | Pioggia | 18 | 16 | 88 | 1014 | 10 | N 9.3 | |
| Oggi h: 08:53 | Molto Nuvoloso | 17 | 15 | 88 | 1016 | 10 | N 5.5 | |
| Oggi h: 07:53 | Sereno | 16 | 14 | 87 | 1016 | 10 | N 0 | |
| Oggi h: 06:53 | Sereno | 16 | 13 | 82 | 1015 | 10 | N 5.5 | |
| Oggi h: 05:53 | Sereno | 14 | 13 | 93 | 1015 | 10 | NO 7.4 | |
| Oggi h: 04:53 | Sereno | 17 | 14 | 82 | 1015 | 10 | N 0 | |
| Oggi h: 03:53 | Sereno | 17 | 14 | 82 | 1015 | 10 | S 7.4 | |
| Oggi h: 02:53 | Sereno | 19 | 14 | 72 | 1015 | 10 | N 0 | |
| Oggi h: 01:53 | Sereno | 18 | 14 | 77 | 1015 | 10 | NO 9.3 | |
| Oggi h: 00:53 | Sereno | 20 | 14 | 68 | 1015 | 10 | E 11.1 | |
| Ieri h: 23:53 | Sereno | 21 | 14 | 64 | 1015 | 10 | E 11.1 | |
| Ieri h: 22:53 | Sereno | 21 | 14 | 64 | 1015 | 10 | E/SE 11.1 | |
| Ieri h: 21:53 | Sereno | 21 | 13 | 60 | 1015 | 10 | E/NE 13 | |
| Ieri h: 20:53 | Sereno | 22 | 14 | 60 | 1014 | 10 | E/NE 13 | |
| Ieri h: 19:53 | Sereno | 26 | 17 | 57 | 1014 | 10 | E/NE 7.4 | |
| Ieri h: 18:53 | Sereno | 29 | 16 | 45 | 1013 | 10 | E 7.4 | |
| Ieri h: 17:53 | Sereno | 31 | 14 | 35 | 1014 | 10 | SE 9.3 | |
| Ieri h: 16:53 | Sereno | 31 | 14 | 35 | 1014 | 10 | N 0 | |
| Ieri h: 15:53 | Sereno | 31 | 12 | 31 | 1014 | 10 | N 7.4 | |
| Ieri h: 14:53 | Sereno | 30 | 13 | 35 | 1014 | 10 | N 7.4 | |
| Ieri h: 13:53 | Sereno | 28 | 12 | 37 | 1015 | 10 | N 7.4 | |
| Ieri h: 12:53 | Sereno | 26 | 11 | 39 | 1016 | 10 | E 9.3 | |
| Ieri h: 11:53 | Sereno | 24 | 11 | 43 | 1016 | 10 | N 5.5 | |
| Ieri h: 10:53 | Sereno | 22 | 11 | 49 | 1016 | 10 | N 9.3 | |



